createdAt,value
2022-10-04T00:00:38.931Z,16.22
2022-10-04T00:03:25.961Z,16.22
2022-10-04T00:05:58.124Z,16.17
2022-10-04T00:08:33.036Z,15.99
2022-10-04T00:11:07.866Z,16.18
2022-10-04T00:13:39.551Z,16.18
2022-10-04T00:16:09.165Z,16.23
2022-10-04T00:18:43.600Z,16.10
2022-10-04T00:21:12.543Z,16.31
2022-10-04T00:23:44.608Z,16.22
2022-10-04T00:26:16.531Z,16.42
2022-10-04T00:28:48.189Z,16.12
2022-10-04T00:31:27.642Z,16.29
2022-10-04T00:34:11.473Z,15.88
2022-10-04T00:36:43.392Z,15.88
2022-10-04T00:39:17.354Z,15.95
2022-10-04T00:41:52.028Z,15.74
2022-10-04T00:44:29.448Z,15.74
2022-10-04T00:47:00.974Z,16.33
2022-10-04T00:49:35.589Z,16.15
2022-10-04T00:52:10.298Z,15.72
2022-10-04T00:54:42.210Z,15.90
2022-10-04T00:57:14.088Z,15.69
2022-10-04T00:59:48.648Z,15.83
2022-10-04T01:02:27.959Z,15.70
2022-10-04T01:05:00.739Z,15.85
2022-10-04T01:07:32.567Z,15.98
2022-10-04T01:10:04.463Z,15.74
2022-10-04T01:12:57.799Z,15.83
2022-10-04T01:15:47.462Z,16.03
2022-10-04T01:18:21.887Z,15.96
2022-10-04T01:20:56.636Z,16.15
2022-10-04T01:23:49.733Z,15.88
2022-10-04T01:26:33.910Z,15.82
2022-10-04T01:29:20.966Z,16.00
2022-10-04T01:31:52.142Z,16.04
2022-10-04T01:34:26.333Z,16.04
2022-10-04T01:37:02.416Z,15.58
2022-10-04T01:39:31.741Z,15.76
2022-10-04T01:42:18.939Z,15.76
2022-10-04T01:45:00.084Z,15.36
2022-10-04T01:47:43.928Z,15.64
2022-10-04T01:50:18.364Z,15.13
2022-10-04T01:52:52.819Z,15.43
2022-10-04T01:55:24.761Z,15.37
2022-10-04T01:58:14.410Z,15.48
2022-10-04T02:00:46.345Z,15.24
2022-10-04T02:03:21.222Z,15.05
2022-10-04T02:05:55.837Z,15.46
2022-10-04T02:08:27.758Z,15.56
2022-10-04T02:10:58.434Z,15.24
2022-10-04T02:13:30.222Z,15.58
2022-10-04T02:16:02.944Z,15.58
2022-10-04T02:18:34.451Z,15.95
2022-10-04T02:21:05.363Z,15.92
2022-10-04T02:23:36.689Z,16.04
2022-10-04T02:26:11.383Z,15.98
2022-10-04T02:28:41.046Z,15.63
2022-10-04T02:31:28.986Z,15.77
2022-10-04T02:34:00.344Z,16.00
2022-10-04T02:36:31.045Z,15.87
2022-10-04T02:39:18.074Z,15.65
2022-10-04T02:41:55.871Z,15.60
2022-10-04T02:44:36.823Z,15.70
2022-10-04T02:47:23.798Z,15.40
2022-10-04T02:49:58.324Z,15.53
2022-10-04T02:52:39.149Z,15.72
2022-10-04T02:55:16.854Z,15.62
2022-10-04T02:57:46.794Z,15.30
2022-10-04T03:00:22.131Z,15.30
2022-10-04T03:03:13.351Z,15.17
2022-10-04T03:05:43.149Z,15.17
2022-10-04T03:08:12.278Z,15.39
2022-10-04T03:10:43.664Z,15.30
2022-10-04T03:13:16.204Z,15.27
2022-10-04T03:15:45.652Z,15.03
2022-10-04T03:18:16.562Z,15.03
2022-10-04T03:20:47.294Z,15.49
2022-10-04T03:23:20.659Z,15.49
2022-10-04T03:25:55.211Z,15.26
2022-10-04T03:28:24.353Z,15.44
2022-10-04T03:30:54.451Z,15.45
2022-10-04T03:33:29.020Z,15.28
2022-10-04T03:36:01.161Z,15.28
2022-10-04T03:38:32.662Z,15.33
2022-10-04T03:41:03.430Z,15.00
2022-10-04T03:43:35.106Z,15.40
2022-10-04T03:46:05.729Z,15.15
2022-10-04T03:48:37.640Z,15.15
2022-10-04T03:51:09.764Z,15.09
2022-10-04T03:53:47.470Z,15.06
2022-10-04T03:56:25.078Z,15.42
2022-10-04T03:58:55.293Z,15.42
2022-10-04T04:01:42.392Z,15.32
2022-10-04T04:04:42.209Z,15.80
2022-10-04T04:07:26.374Z,15.51
2022-10-04T04:10:07.363Z,15.51
2022-10-04T04:12:56.901Z,17.07
2022-10-04T04:15:31.377Z,17.07
2022-10-04T04:18:09.561Z,18.35
2022-10-04T04:20:43.932Z,19.39
2022-10-04T04:23:15.795Z,19.89
2022-10-04T04:25:47.669Z,20.19
2022-10-04T04:28:22.575Z,20.19
2022-10-04T04:30:54.894Z,20.66
2022-10-04T04:33:29.969Z,20.51
2022-10-04T04:36:07.833Z,23.17
2022-10-04T04:38:38.494Z,23.17
2022-10-04T04:41:12.285Z,23.82
2022-10-04T04:43:44.110Z,24.24
2022-10-04T04:46:28.674Z,23.99
2022-10-04T04:48:51.029Z,23.99
2022-10-04T04:51:22.951Z,23.50
2022-10-04T04:53:54.336Z,23.18
2022-10-04T04:56:26.277Z,23.29
2022-10-04T04:58:59.740Z,24.08
2022-10-04T05:01:31.678Z,23.19
2022-10-04T05:04:06.648Z,24.83
2022-10-04T05:06:37.736Z,24.43
2022-10-04T05:09:07.558Z,24.54
2022-10-04T05:11:39.797Z,24.54
2022-10-04T05:14:14.340Z,23.77
2022-10-04T05:16:49.041Z,23.77
2022-10-04T05:19:35.777Z,23.77
2022-10-04T05:22:10.507Z,24.56
2022-10-04T05:24:45.213Z,24.67
2022-10-04T05:27:32.140Z,24.48
2022-10-04T05:30:10.025Z,22.94
2022-10-04T05:33:04.940Z,22.94
2022-10-04T05:35:45.689Z,23.46
2022-10-04T05:38:35.243Z,23.57
2022-10-04T05:41:09.720Z,24.17
2022-10-04T05:43:41.589Z,24.17
2022-10-04T05:46:28.708Z,23.67
2022-10-04T05:49:09.181Z,24.11
2022-10-04T05:51:53.388Z,23.50
2022-10-04T05:54:25.372Z,23.91
2022-10-04T05:57:05.577Z,23.91
2022-10-04T06:00:03.367Z,24.27
2022-10-04T06:02:44.536Z,24.86
2022-10-04T06:05:36.258Z,24.87
2022-10-04T06:08:08.472Z,24.66
2022-10-04T06:11:08.690Z,24.66
2022-10-04T06:13:52.929Z,25.01
2022-10-04T06:16:41.406Z,25.01
2022-10-04T06:19:19.219Z,25.00
2022-10-04T06:22:13.609Z,25.87
2022-10-04T06:24:45.379Z,26.39
2022-10-04T06:27:19.836Z,26.39
2022-10-04T06:29:54.630Z,25.23
2022-10-04T06:32:33.177Z,25.23
2022-10-04T06:35:20.092Z,26.38
2022-10-04T06:38:07.415Z,25.84
2022-10-04T06:40:55.626Z,25.84
2022-10-04T06:43:57.737Z,26.11
2022-10-04T06:46:50.922Z,26.33
2022-10-04T06:49:22.750Z,25.90
2022-10-04T06:52:17.412Z,25.90
2022-10-04T06:54:52.967Z,25.97
2022-10-04T06:57:50.633Z,25.79
2022-10-04T07:00:31.159Z,26.17
2022-10-04T07:03:18.155Z,26.17
2022-10-04T07:05:52.617Z,26.43
2022-10-04T07:08:34.380Z,26.38
2022-10-04T07:11:11.570Z,27.23
2022-10-04T07:13:49.461Z,27.23
2022-10-04T07:16:23.975Z,26.73
2022-10-04T07:18:58.883Z,26.69
2022-10-04T07:21:31.428Z,26.69
2022-10-04T07:24:04.066Z,27.38
2022-10-04T07:26:41.966Z,27.25
2022-10-04T07:29:22.644Z,27.25
2022-10-04T07:31:54.533Z,27.25
2022-10-04T07:34:30.963Z,25.97
2022-10-04T07:37:03.586Z,25.97
2022-10-04T07:39:51.931Z,26.57
2022-10-04T07:42:26.420Z,26.42
2022-10-04T07:45:23.534Z,27.17
2022-10-04T07:47:54.445Z,27.17
2022-10-04T07:50:26.303Z,25.99
2022-10-04T07:53:09.179Z,26.78
2022-10-04T07:55:54.182Z,26.76
2022-10-04T07:58:47.032Z,27.43
2022-10-04T08:01:25.398Z,27.21
2022-10-04T08:04:03.573Z,27.21
2022-10-04T08:06:38.392Z,27.67
2022-10-04T08:09:12.709Z,27.67
2022-10-04T08:11:53.132Z,27.31
2022-10-04T08:14:42.271Z,27.56
2022-10-04T08:17:39.276Z,27.21
2022-10-04T08:20:30.546Z,26.91
2022-10-04T08:23:11.444Z,26.89
2022-10-04T08:25:43.285Z,26.89
2022-10-04T08:28:56.161Z,27.50
2022-10-04T08:31:56.691Z,26.49
2022-10-04T08:34:47.931Z,26.49
2022-10-04T08:37:33.633Z,26.76
2022-10-04T08:40:39.487Z,26.59
2022-10-04T08:43:28.186Z,27.01
2022-10-04T08:46:09.817Z,27.01
2022-10-04T08:48:53.517Z,26.32
2022-10-04T08:51:54.341Z,26.32
2022-10-04T08:54:33.409Z,27.18
2022-10-04T08:57:16.550Z,27.26
2022-10-04T09:00:05.343Z,26.28
2022-10-04T09:02:57.097Z,24.81
2022-10-04T09:05:41.077Z,25.74
2022-10-04T09:08:15.597Z,26.63
2022-10-04T09:11:08.787Z,26.63
2022-10-04T09:13:40.603Z,26.66
2022-10-04T09:16:41.222Z,27.41
2022-10-04T09:19:47.305Z,27.41
2022-10-04T09:22:20.221Z,27.11
2022-10-04T09:25:16.371Z,25.36
2022-10-04T09:28:06.511Z,25.36
2022-10-04T09:30:59.709Z,25.15
2022-10-04T09:33:34.276Z,25.38
2022-10-04T09:36:22.859Z,25.84
2022-10-04T09:39:30.909Z,25.78
2022-10-04T09:42:09.237Z,25.17
2022-10-04T09:44:50.064Z,25.17
2022-10-04T09:47:46.020Z,25.37
2022-10-04T09:50:24.997Z,24.85
2022-10-04T09:52:59.885Z,24.85
2022-10-04T09:55:46.850Z,25.43
2022-10-04T09:58:29.209Z,25.43
2022-10-04T10:01:09.922Z,25.06
2022-10-04T10:03:48.242Z,25.11
2022-10-04T10:06:29.755Z,25.11
2022-10-04T10:09:28.994Z,24.91
2022-10-04T10:12:50.864Z,24.91
2022-10-04T10:15:39.273Z,24.42
2022-10-04T10:18:20.151Z,22.76
2022-10-04T10:21:20.245Z,22.22
2022-10-04T10:24:12.110Z,22.75
2022-10-04T10:27:06.011Z,22.45
2022-10-04T10:29:40.723Z,22.68
2022-10-04T10:32:32.181Z,22.68
2022-10-04T10:35:29.739Z,22.46
2022-10-04T10:38:16.765Z,22.34
2022-10-04T10:41:15.745Z,22.09
2022-10-04T10:44:11.229Z,22.31
2022-10-04T10:47:03.644Z,22.31
2022-10-04T10:49:56.865Z,22.01
2022-10-04T10:52:34.386Z,21.77
2022-10-04T10:55:30.858Z,21.30
2022-10-04T10:58:35.967Z,21.80
2022-10-04T11:01:19.618Z,21.28
2022-10-04T11:04:06.258Z,21.40
2022-10-04T11:06:58.972Z,20.92
2022-10-04T11:09:42.728Z,20.92
2022-10-04T11:12:23.843Z,20.90
2022-10-04T11:15:01.584Z,20.90
2022-10-04T11:17:42.373Z,21.64
2022-10-04T11:20:35.478Z,21.81
2022-10-04T11:23:23.467Z,21.81
2022-10-04T11:26:16.845Z,21.69
2022-10-04T11:28:48.740Z,21.69
2022-10-04T11:31:55.214Z,21.12
2022-10-04T11:34:43.744Z,21.26
2022-10-04T11:37:31.508Z,21.12
2022-10-04T11:40:09.557Z,21.17
2022-10-04T11:43:02.811Z,21.92
2022-10-04T11:46:00.832Z,21.47
2022-10-04T11:48:44.441Z,21.20
2022-10-04T11:51:28.218Z,21.37
2022-10-04T11:54:24.592Z,21.33
2022-10-04T11:57:22.295Z,21.35
2022-10-04T12:00:00.348Z,21.15
2022-10-04T12:02:50.407Z,21.22
2022-10-04T12:05:28.075Z,21.22
2022-10-04T12:08:01.643Z,20.94
2022-10-04T12:10:33.578Z,20.78
2022-10-04T12:13:08.324Z,20.85
2022-10-04T12:15:55.460Z,20.46
2022-10-04T12:18:42.504Z,20.46
2022-10-04T12:21:34.941Z,20.98
2022-10-04T12:24:18.811Z,20.46
2022-10-04T12:27:07.132Z,20.76
2022-10-04T12:29:57.093Z,20.60
2022-10-04T12:32:28.955Z,20.58
2022-10-04T12:35:03.870Z,20.47
2022-10-04T12:37:44.767Z,20.10
2022-10-04T12:40:29.301Z,20.51
2022-10-04T12:43:07.211Z,20.55
2022-10-04T12:45:45.424Z,20.55
2022-10-04T12:48:35.571Z,20.79
2022-10-04T12:51:28.373Z,20.51
2022-10-04T12:54:33.705Z,20.43
2022-10-04T12:57:23.787Z,20.41
2022-10-04T13:00:19.244Z,20.14
2022-10-04T13:02:53.761Z,20.34
2022-10-04T13:05:34.622Z,20.32
2022-10-04T13:08:18.614Z,20.34
2022-10-04T13:11:23.917Z,20.14
2022-10-04T13:14:14.989Z,20.10
2022-10-04T13:19:47.878Z,20.03
2022-10-04T13:22:43.911Z,20.05
2022-10-04T13:25:16.024Z,19.94
2022-10-04T13:27:53.704Z,20.08
2022-10-04T13:30:27.076Z,20.20
2022-10-04T13:33:14.409Z,20.20
2022-10-04T13:35:55.310Z,19.48
2022-10-04T13:38:43.872Z,19.48
2022-10-04T13:41:21.647Z,19.72
2022-10-04T13:44:08.796Z,19.57
2022-10-04T13:47:07.797Z,19.57
2022-10-04T13:50:14.809Z,19.69
2022-10-04T13:53:13.889Z,19.28
2022-10-04T13:56:06.351Z,19.46
2022-10-04T13:58:56.327Z,19.40
2022-10-04T14:01:48.536Z,19.51
2022-10-04T14:04:38.511Z,19.19
2022-10-04T14:07:32.748Z,19.64
2022-10-04T14:10:39.763Z,19.64
2022-10-04T14:13:11.701Z,19.33
2022-10-04T14:15:58.621Z,19.15
2022-10-04T14:19:07.209Z,19.11
2022-10-04T14:21:48.702Z,19.18
2022-10-04T14:24:39.278Z,19.04
2022-10-04T14:27:22.771Z,18.77
2022-10-04T14:30:11.080Z,18.82
2022-10-04T14:32:55.857Z,18.62
2022-10-04T14:35:52.019Z,18.54
2022-10-04T14:38:30.837Z,18.42
2022-10-04T14:41:25.141Z,18.42
2022-10-04T14:44:11.979Z,18.53
2022-10-04T14:47:18.848Z,18.42
2022-10-04T14:50:00.188Z,18.42
2022-10-04T14:52:50.567Z,18.30
2022-10-04T14:55:38.482Z,18.16
2022-10-04T14:58:10.349Z,18.04
2022-10-04T15:00:57.640Z,18.04
2022-10-04T15:03:49.541Z,18.16
2022-10-04T15:06:40.272Z,17.94
2022-10-04T15:09:36.252Z,17.90
2022-10-04T15:12:40.773Z,17.90
2022-10-04T15:15:14.615Z,17.67
2022-10-04T15:17:55.256Z,17.70
2022-10-04T15:20:39.457Z,17.54
2022-10-04T15:23:32.876Z,17.54
2022-10-04T15:26:04.767Z,17.60
2022-10-04T15:28:45.665Z,17.52
2022-10-04T15:31:35.746Z,17.52
2022-10-04T15:34:07.703Z,16.94
2022-10-04T15:36:45.136Z,17.15
2022-10-04T15:39:29.366Z,17.12
2022-10-04T15:42:13.424Z,17.12
2022-10-04T15:44:57.538Z,17.13
2022-10-04T15:47:32.243Z,16.91
2022-10-04T15:50:39.317Z,17.04
2022-10-04T15:53:20.002Z,17.04
2022-10-04T15:55:54.374Z,16.95
2022-10-04T15:58:50.589Z,17.02
2022-10-04T16:01:22.413Z,17.09
2022-10-04T16:03:56.890Z,17.09
2022-10-04T16:06:37.757Z,17.08
2022-10-04T16:09:24.815Z,17.01
2022-10-04T16:12:24.343Z,16.96
2022-10-04T16:15:14.900Z,16.99
2022-10-04T16:18:09.148Z,16.84
2022-10-04T16:20:58.937Z,16.69
2022-10-04T16:23:39.537Z,16.69
2022-10-04T16:26:14.247Z,16.81
2022-10-04T16:28:57.848Z,16.81
2022-10-04T16:31:47.741Z,16.69
2022-10-04T16:34:19.602Z,16.51
2022-10-04T16:36:56.930Z,16.60
2022-10-04T16:39:52.265Z,16.75
2022-10-04T16:42:29.742Z,16.75
2022-10-04T16:45:10.502Z,16.58
2022-10-04T16:47:42.357Z,16.57
2022-10-04T16:50:13.503Z,16.42
2022-10-04T16:53:06.472Z,16.42
2022-10-04T16:56:01.394Z,16.40
2022-10-04T16:58:34.900Z,16.40
2022-10-04T17:01:26.467Z,16.53
2022-10-04T17:04:04.083Z,16.39
2022-10-04T17:06:54.587Z,16.35
2022-10-04T17:09:35.763Z,16.29
2022-10-04T17:12:23.775Z,16.18
2022-10-04T17:15:17.965Z,16.18
2022-10-04T17:17:50.065Z,16.47
2022-10-04T17:20:33.485Z,16.32
2022-10-04T17:23:24.753Z,16.27
2022-10-04T17:25:59.307Z,16.13
2022-10-04T17:28:40.035Z,15.97
2022-10-04T17:31:14.667Z,15.97
2022-10-04T17:33:50.608Z,15.85
2022-10-04T17:36:37.733Z,16.06
2022-10-04T17:39:18.584Z,15.98
2022-10-04T17:41:59.258Z,15.82
2022-10-04T17:44:39.551Z,15.82
2022-10-04T17:47:23.845Z,15.78
2022-10-04T17:50:13.978Z,16.00
2022-10-04T17:53:06.289Z,16.03
2022-10-04T17:55:46.973Z,16.03
2022-10-04T17:58:25.436Z,15.95
2022-10-04T18:01:00.464Z,15.95
2022-10-04T18:03:38.620Z,16.10
2022-10-04T18:06:28.424Z,16.04
2022-10-04T18:09:03.186Z,16.06
2022-10-04T18:11:37.847Z,16.06
2022-10-04T18:14:09.786Z,16.02
2022-10-04T18:17:01.097Z,16.07
2022-10-04T18:19:36.388Z,15.89
2022-10-04T18:22:22.994Z,15.93
2022-10-04T18:25:00.849Z,15.68
2022-10-04T18:27:32.293Z,15.82
2022-10-04T18:30:08.100Z,15.86
2022-10-04T18:32:38.755Z,15.73
2022-10-04T18:35:30.922Z,15.67
2022-10-04T18:38:08.711Z,15.45
2022-10-04T18:40:43.166Z,15.40
2022-10-04T18:43:33.369Z,15.45
2022-10-04T18:46:05.319Z,15.34
2022-10-04T18:48:48.677Z,15.57
2022-10-04T18:51:26.469Z,15.49
2022-10-04T18:54:04.769Z,15.44
2022-10-04T18:56:36.596Z,15.44
2022-10-04T18:59:40.602Z,15.36
2022-10-04T19:02:21.210Z,15.36
2022-10-04T19:05:05.156Z,15.23
2022-10-04T19:07:59.370Z,15.24
2022-10-04T19:10:46.325Z,15.27
2022-10-04T19:13:30.666Z,15.06
2022-10-04T19:16:14.588Z,15.04
2022-10-04T19:18:55.765Z,15.04
2022-10-04T19:21:34.235Z,14.90
2022-10-04T19:24:22.517Z,15.21
2022-10-04T19:27:21.787Z,14.93
2022-10-04T19:30:10.102Z,14.93
2022-10-04T19:33:03.255Z,14.98
2022-10-04T19:35:40.900Z,14.89
2022-10-04T19:38:30.919Z,14.74
2022-10-04T19:41:05.634Z,14.90
2022-10-04T19:43:46.360Z,14.78
2022-10-04T19:46:56.350Z,14.81
2022-10-04T19:49:28.183Z,14.90
2022-10-04T19:52:00.321Z,14.71
2022-10-04T19:54:32.314Z,14.83
2022-10-04T19:57:04.420Z,14.98
2022-10-04T19:59:42.166Z,14.85
2022-10-04T20:02:13.119Z,14.82
2022-10-04T20:04:43.936Z,14.89
2022-10-04T20:07:29.483Z,14.57
2022-10-04T20:10:01.506Z,14.77
2022-10-04T20:12:42.009Z,14.72
2022-10-04T20:15:26.516Z,14.72
2022-10-04T20:17:52.383Z,14.61
2022-10-04T20:20:41.046Z,14.75
2022-10-04T20:23:12.104Z,14.75
2022-10-04T20:25:52.896Z,14.80
2022-10-04T20:28:35.221Z,14.25
2022-10-04T20:31:07.166Z,14.26
2022-10-04T20:33:39.300Z,14.30
2022-10-04T20:36:32.072Z,14.47
2022-10-04T20:39:06.626Z,14.47
2022-10-04T20:41:52.050Z,14.38
2022-10-04T20:44:46.677Z,14.30
2022-10-04T20:47:51.970Z,14.25
2022-10-04T20:50:23.839Z,14.18
2022-10-04T20:52:57.314Z,14.27
2022-10-04T20:55:32.368Z,14.48
2022-10-04T20:58:07.317Z,14.48
2022-10-04T21:00:36.496Z,14.27
2022-10-04T21:03:17.558Z,14.33
2022-10-04T21:05:53.183Z,14.32
2022-10-04T21:08:26.778Z,14.39
2022-10-04T21:11:07.756Z,14.39
2022-10-04T21:14:03.963Z,14.36
2022-10-04T21:16:38.365Z,14.57
2022-10-04T21:19:33.865Z,14.57
2022-10-04T21:22:05.191Z,14.47
2022-10-04T21:24:46.057Z,14.33
2022-10-04T21:27:30.301Z,14.39
2022-10-04T21:30:00.393Z,14.41
2022-10-04T21:32:31.590Z,14.39
2022-10-04T21:35:00.887Z,14.11
2022-10-04T21:37:29.838Z,14.16
2022-10-04T21:39:59.173Z,14.16
2022-10-04T21:42:28.756Z,14.23
2022-10-04T21:44:57.711Z,14.23
2022-10-04T21:47:26.673Z,14.10
2022-10-04T21:49:55.745Z,14.10
2022-10-04T21:52:24.926Z,14.02
2022-10-04T21:54:53.876Z,13.96
2022-10-04T21:57:24.205Z,13.96
2022-10-04T21:59:54.209Z,13.94
2022-10-04T22:02:23.338Z,13.74
2022-10-04T22:04:52.496Z,14.14
2022-10-04T22:07:21.633Z,13.95
2022-10-04T22:09:50.903Z,13.91
2022-10-04T22:12:19.834Z,13.89
2022-10-04T22:14:48.784Z,13.97
2022-10-04T22:17:18.006Z,13.92
2022-10-04T22:19:46.941Z,13.99
2022-10-04T22:22:17.536Z,13.96
2022-10-04T22:24:46.748Z,13.92
2022-10-04T22:27:18.846Z,13.92
2022-10-04T22:29:48.113Z,13.93
2022-10-04T22:32:25.830Z,13.93
2022-10-04T22:35:03.566Z,13.83
2022-10-04T22:37:32.551Z,13.61
2022-10-04T22:40:01.508Z,13.78
2022-10-04T22:42:32.817Z,13.70
2022-10-04T22:45:07.934Z,13.70
2022-10-04T22:47:37.204Z,13.90
2022-10-04T22:50:09.121Z,13.67
2022-10-04T22:52:38.412Z,13.67
2022-10-04T22:55:10.335Z,13.64
2022-10-04T22:57:39.581Z,13.65
2022-10-04T23:00:10.864Z,13.78
2022-10-04T23:02:40.142Z,13.81
2022-10-04T23:05:20.750Z,13.90
2022-10-04T23:07:50.624Z,13.83
2022-10-04T23:10:20.791Z,13.69
2022-10-04T23:12:51.068Z,13.60
2022-10-04T23:15:22.051Z,13.75
2022-10-04T23:17:54.572Z,13.53
2022-10-04T23:20:24.836Z,13.53
2022-10-04T23:22:55.875Z,13.48
2022-10-04T23:25:30.228Z,13.52
2022-10-04T23:28:02.270Z,13.53
2022-10-04T23:30:31.611Z,13.53
2022-10-04T23:33:02.226Z,13.51
2022-10-04T23:35:34.024Z,13.47
2022-10-04T23:38:08.759Z,13.41
2022-10-04T23:40:37.738Z,13.41
2022-10-04T23:43:07.641Z,13.38
2022-10-04T23:45:38.380Z,13.38
2022-10-04T23:48:10.156Z,13.34
2022-10-04T23:50:41.804Z,13.38
2022-10-04T23:53:22.818Z,13.32
2022-10-04T23:55:51.939Z,13.18
2022-10-04T23:58:28.393Z,13.20
